sensor_id;sensor_type;location;lat;lon;timestamp;pressure;altitude;pressure_sealevel;temperature;humidity
57094;BME280;42970;50.996;3.706;2022-08-03T00:02:24;75644.16;;;-146.65;74.07
57094;BME280;42970;50.996;3.706;2022-08-03T00:04:50;75634.06;;;-146.65;73.87
57094;BME280;42970;50.996;3.706;2022-08-03T00:07:18;75642.13;;;-146.65;73.94
57094;BME280;42970;50.996;3.706;2022-08-03T00:09:43;75640.09;;;-146.65;73.87
57094;BME280;42970;50.996;3.706;2022-08-03T00:12:09;75654.22;;;-146.65;73.95
57094;BME280;42970;50.996;3.706;2022-08-03T00:14:34;75666.34;;;-146.65;74.43
57094;BME280;42970;50.996;3.706;2022-08-03T00:17:00;75670.38;;;-146.65;74.72
57094;BME280;42970;50.996;3.706;2022-08-03T00:19:25;75668.34;;;-146.65;74.95
57094;BME280;42970;50.996;3.706;2022-08-03T00:21:50;75672.38;;;-146.65;74.96
57094;BME280;42970;50.996;3.706;2022-08-03T00:24:16;75670.38;;;-146.65;75.00
57094;BME280;42970;50.996;3.706;2022-08-03T00:26:41;75666.34;;;-146.65;75.12
57094;BME280;42970;50.996;3.706;2022-08-03T00:29:06;75670.38;;;-146.65;74.97
57094;BME280;42970;50.996;3.706;2022-08-03T00:31:32;75672.38;;;-146.65;75.24
57094;BME280;42970;50.996;3.706;2022-08-03T00:33:57;75672.38;;;-146.65;75.76
57094;BME280;42970;50.996;3.706;2022-08-03T00:36:23;75678.44;;;-146.65;75.93
57094;BME280;42970;50.996;3.706;2022-08-03T00:38:48;75676.41;;;-146.65;75.78
57094;BME280;42970;50.996;3.706;2022-08-03T00:41:13;75670.38;;;-146.65;76.04
57094;BME280;42970;50.996;3.706;2022-08-03T00:43:39;75674.41;;;-146.65;76.01
57094;BME280;42970;50.996;3.706;2022-08-03T00:46:04;75674.41;;;-146.65;75.71
57094;BME280;42970;50.996;3.706;2022-08-03T00:48:30;75672.38;;;-146.65;75.85
57094;BME280;42970;50.996;3.706;2022-08-03T00:50:55;75684.50;;;-146.65;76.29
57094;BME280;42970;50.996;3.706;2022-08-03T00:53:21;75690.53;;;-146.65;76.29
57094;BME280;42970;50.996;3.706;2022-08-03T00:55:46;75686.50;;;-146.65;76.16
57094;BME280;42970;50.996;3.706;2022-08-03T00:58:12;75696.59;;;-146.65;75.86
57094;BME280;42970;50.996;3.706;2022-08-03T01:00:38;75698.59;;;-146.65;76.32
57094;BME280;42970;50.996;3.706;2022-08-03T01:03:05;75708.69;;;-146.65;76.91
57094;BME280;42970;50.996;3.706;2022-08-03T01:06:03;75706.69;;;-146.65;77.31
57094;BME280;42970;50.996;3.706;2022-08-03T01:08:51;75698.59;;;-146.65;77.08
57094;BME280;42970;50.996;3.706;2022-08-03T01:11:29;75696.59;;;-146.65;77.06
57094;BME280;42970;50.996;3.706;2022-08-03T01:14:12;75698.59;;;-146.65;77.02
57094;BME280;42970;50.996;3.706;2022-08-03T01:16:45;75708.69;;;-146.65;77.59
57094;BME280;42970;50.996;3.706;2022-08-03T01:22:22;75712.72;;;-146.65;78.03
57094;BME280;42970;50.996;3.706;2022-08-03T01:25:16;75706.69;;;-146.65;78.52
57094;BME280;42970;50.996;3.706;2022-08-03T01:30:13;75702.63;;;-146.65;78.46
57094;BME280;42970;50.996;3.706;2022-08-03T01:32:54;75694.56;;;-146.65;78.65
57094;BME280;42970;50.996;3.706;2022-08-03T01:35:44;75690.53;;;-146.65;78.45
57094;BME280;42970;50.996;3.706;2022-08-03T01:38:14;75702.63;;;-146.65;78.68
57094;BME280;42970;50.996;3.706;2022-08-03T01:40:43;75702.63;;;-146.65;78.95
57094;BME280;42970;50.996;3.706;2022-08-03T01:43:14;75704.66;;;-146.65;78.88
57094;BME280;42970;50.996;3.706;2022-08-03T01:45:42;75700.63;;;-146.65;78.87
57094;BME280;42970;50.996;3.706;2022-08-03T01:48:08;75700.63;;;-146.65;78.99
57094;BME280;42970;50.996;3.706;2022-08-03T01:50:35;75698.59;;;-146.65;78.76
57094;BME280;42970;50.996;3.706;2022-08-03T01:53:01;75706.69;;;-146.65;78.78
57094;BME280;42970;50.996;3.706;2022-08-03T01:55:29;75706.69;;;-146.65;78.89
57094;BME280;42970;50.996;3.706;2022-08-03T01:57:58;75712.72;;;-146.65;79.02
57094;BME280;42970;50.996;3.706;2022-08-03T02:00:26;75722.81;;;-146.65;79.09
57094;BME280;42970;50.996;3.706;2022-08-03T02:02:53;75718.78;;;-146.65;79.07
57094;BME280;42970;50.996;3.706;2022-08-03T02:05:18;75724.81;;;-146.65;79.30
57094;BME280;42970;50.996;3.706;2022-08-03T02:07:46;75734.91;;;-146.65;79.30
57094;BME280;42970;50.996;3.706;2022-08-03T02:10:14;75738.94;;;-146.65;79.42
57094;BME280;42970;50.996;3.706;2022-08-03T02:12:43;75747.03;;;-146.65;79.91
57094;BME280;42970;50.996;3.706;2022-08-03T02:15:10;75759.13;;;-146.65;80.21
57094;BME280;42970;50.996;3.706;2022-08-03T02:17:37;75765.16;;;-146.65;79.51
57094;BME280;42970;50.996;3.706;2022-08-03T02:20:04;75783.31;;;-146.65;79.49
57094;BME280;42970;50.996;3.706;2022-08-03T02:22:32;75777.28;;;-146.65;79.65
57094;BME280;42970;50.996;3.706;2022-08-03T02:24:57;75787.38;;;-146.65;79.65
57094;BME280;42970;50.996;3.706;2022-08-03T02:27:26;75787.38;;;-146.65;79.66
57094;BME280;42970;50.996;3.706;2022-08-03T02:30:02;75789.38;;;-146.65;79.55
57094;BME280;42970;50.996;3.706;2022-08-03T02:32:30;75791.41;;;-146.65;80.06
57094;BME280;42970;50.996;3.706;2022-08-03T02:34:58;75793.41;;;-146.65;80.26
57094;BME280;42970;50.996;3.706;2022-08-03T02:37:26;75797.44;;;-146.65;80.33
57094;BME280;42970;50.996;3.706;2022-08-03T02:39:58;75797.44;;;-146.65;80.07
57094;BME280;42970;50.996;3.706;2022-08-03T02:42:25;75789.38;;;-146.65;80.75
57094;BME280;42970;50.996;3.706;2022-08-03T02:44:55;75793.41;;;-146.65;80.29
57094;BME280;42970;50.996;3.706;2022-08-03T02:47:23;75791.41;;;-146.65;80.19
57094;BME280;42970;50.996;3.706;2022-08-03T02:49:53;75793.41;;;-146.65;80.31
57094;BME280;42970;50.996;3.706;2022-08-03T02:52:20;75797.44;;;-146.65;80.44
57094;BME280;42970;50.996;3.706;2022-08-03T02:54:48;75795.44;;;-146.65;80.79
57094;BME280;42970;50.996;3.706;2022-08-03T02:57:15;75791.41;;;-146.65;80.71
57094;BME280;42970;50.996;3.706;2022-08-03T02:59:43;75801.47;;;-146.65;81.04
57094;BME280;42970;50.996;3.706;2022-08-03T03:02:09;75807.53;;;-146.65;81.36
57094;BME280;42970;50.996;3.706;2022-08-03T03:04:36;75807.53;;;-146.65;81.63
57094;BME280;42970;50.996;3.706;2022-08-03T03:07:02;75811.56;;;-146.65;81.66
57094;BME280;42970;50.996;3.706;2022-08-03T03:09:28;75803.50;;;-146.65;81.66
57094;BME280;42970;50.996;3.706;2022-08-03T03:11:55;75805.50;;;-146.65;81.60
57094;BME280;42970;50.996;3.706;2022-08-03T03:14:21;75815.59;;;-146.65;81.63
57094;BME280;42970;50.996;3.706;2022-08-03T03:16:47;75825.69;;;-146.65;81.70
57094;BME280;42970;50.996;3.706;2022-08-03T03:19:14;75829.72;;;-146.65;81.29
57094;BME280;42970;50.996;3.706;2022-08-03T03:21:42;75835.78;;;-146.65;81.91
57094;BME280;42970;50.996;3.706;2022-08-03T03:24:08;75835.78;;;-146.65;82.02
57094;BME280;42970;50.996;3.706;2022-08-03T03:26:34;75835.78;;;-146.65;82.75
57094;BME280;42970;50.996;3.706;2022-08-03T03:29:00;75831.75;;;-146.65;83.05
57094;BME280;42970;50.996;3.706;2022-08-03T03:31:26;75837.78;;;-146.65;82.57
57094;BME280;42970;50.996;3.706;2022-08-03T03:33:52;75845.84;;;-146.65;82.28
57094;BME280;42970;50.996;3.706;2022-08-03T03:36:19;75847.88;;;-146.65;82.21
57094;BME280;42970;50.996;3.706;2022-08-03T03:38:44;75851.91;;;-146.65;82.62
57094;BME280;42970;50.996;3.706;2022-08-03T03:41:10;75843.84;;;-146.65;82.31
57094;BME280;42970;50.996;3.706;2022-08-03T03:43:35;75845.84;;;-146.65;82.44
57094;BME280;42970;50.996;3.706;2022-08-03T03:46:01;75843.84;;;-146.65;82.29
57094;BME280;42970;50.996;3.706;2022-08-03T03:48:27;75847.88;;;-146.65;82.23
57094;BME280;42970;50.996;3.706;2022-08-03T03:50:53;75851.91;;;-146.65;82.78
57094;BME280;42970;50.996;3.706;2022-08-03T03:53:18;75862.00;;;-146.65;82.92
57094;BME280;42970;50.996;3.706;2022-08-03T03:55:44;75864.00;;;-146.65;83.44
57094;BME280;42970;50.996;3.706;2022-08-03T03:58:09;75872.09;;;-146.65;83.42
57094;BME280;42970;50.996;3.706;2022-08-03T04:00:35;75876.13;;;-146.65;83.73
57094;BME280;42970;50.996;3.706;2022-08-03T04:03:00;75880.16;;;-146.65;83.74
57094;BME280;42970;50.996;3.706;2022-08-03T04:05:26;75882.16;;;-146.65;83.57
57094;BME280;42970;50.996;3.706;2022-08-03T04:08:17;75876.13;;;-146.65;83.87
57094;BME280;42970;50.996;3.706;2022-08-03T04:11:12;75876.13;;;-146.65;84.04
57094;BME280;42970;50.996;3.706;2022-08-03T04:13:52;75872.09;;;-146.65;84.49
57094;BME280;42970;50.996;3.706;2022-08-03T04:16:23;75870.06;;;-146.65;84.72
57094;BME280;42970;50.996;3.706;2022-08-03T04:18:56;75851.91;;;-146.65;84.79
57094;BME280;42970;50.996;3.706;2022-08-03T04:21:23;75853.94;;;-146.65;84.80
57094;BME280;42970;50.996;3.706;2022-08-03T04:23:52;75845.84;;;-146.65;84.35
57094;BME280;42970;50.996;3.706;2022-08-03T04:26:21;75851.91;;;-146.65;84.39
57094;BME280;42970;50.996;3.706;2022-08-03T04:28:48;75839.81;;;-146.65;84.25
57094;BME280;42970;50.996;3.706;2022-08-03T04:31:17;75841.81;;;-146.65;83.81
57094;BME280;42970;50.996;3.706;2022-08-03T04:33:45;75849.91;;;-146.65;83.89
57094;BME280;42970;50.996;3.706;2022-08-03T04:36:26;75859.97;;;-146.65;83.34
57094;BME280;42970;50.996;3.706;2022-08-03T04:39:10;75864.00;;;-146.65;83.44
57094;BME280;42970;50.996;3.706;2022-08-03T04:41:38;75864.00;;;-146.65;83.61
57094;BME280;42970;50.996;3.706;2022-08-03T04:44:04;75870.06;;;-146.65;82.98
57094;BME280;42970;50.996;3.706;2022-08-03T04:46:37;75851.91;;;-146.65;83.23
57094;BME280;42970;50.996;3.706;2022-08-03T04:49:03;75839.81;;;-146.65;83.59
57094;BME280;42970;50.996;3.706;2022-08-03T04:51:30;75843.84;;;-146.65;83.85
57094;BME280;42970;50.996;3.706;2022-08-03T04:53:56;75853.94;;;-146.65;83.47
57094;BME280;42970;50.996;3.706;2022-08-03T04:56:21;75855.94;;;-146.65;83.98
57094;BME280;42970;50.996;3.706;2022-08-03T04:58:47;75841.81;;;-146.65;83.79
57094;BME280;42970;50.996;3.706;2022-08-03T05:01:12;75839.81;;;-146.65;83.50
57094;BME280;42970;50.996;3.706;2022-08-03T05:03:37;75841.81;;;-146.65;82.91
57094;BME280;42970;50.996;3.706;2022-08-03T05:06:03;75835.78;;;-146.65;82.77
57094;BME280;42970;50.996;3.706;2022-08-03T05:08:28;75831.75;;;-146.65;83.25
57094;BME280;42970;50.996;3.706;2022-08-03T05:10:55;75817.63;;;-146.65;83.66
57094;BME280;42970;50.996;3.706;2022-08-03T05:13:20;75803.50;;;-146.65;83.36
57094;BME280;42970;50.996;3.706;2022-08-03T05:15:46;75795.44;;;-146.65;83.13
57094;BME280;42970;50.996;3.706;2022-08-03T05:18:11;75787.38;;;-146.65;83.03
57094;BME280;42970;50.996;3.706;2022-08-03T05:20:36;75775.25;;;-146.65;82.70
57094;BME280;42970;50.996;3.706;2022-08-03T05:23:02;75771.22;;;-146.65;82.62
57094;BME280;42970;50.996;3.706;2022-08-03T05:25:28;75755.09;;;-146.65;82.24
57094;BME280;42970;50.996;3.706;2022-08-03T05:27:54;75747.03;;;-146.65;81.91
57094;BME280;42970;50.996;3.706;2022-08-03T05:30:20;75736.94;;;-146.65;81.91
57094;BME280;42970;50.996;3.706;2022-08-03T05:32:45;75716.75;;;-146.65;81.24
57094;BME280;42970;50.996;3.706;2022-08-03T05:35:10;75702.63;;;-146.65;80.73
57094;BME280;42970;50.996;3.706;2022-08-03T05:37:54;75668.34;;;-146.65;79.48
57094;BME280;42970;50.996;3.706;2022-08-03T05:40:42;75666.34;;;-146.65;79.29
57094;BME280;42970;50.996;3.706;2022-08-03T05:43:08;75656.25;;;-146.65;78.89
57094;BME280;42970;50.996;3.706;2022-08-03T05:45:35;75642.13;;;-146.65;78.44
57094;BME280;42970;50.996;3.706;2022-08-03T05:48:01;75652.22;;;-146.65;78.58
57094;BME280;42970;50.996;3.706;2022-08-03T05:50:26;75644.16;;;-146.65;78.85
57094;BME280;42970;50.996;3.706;2022-08-03T05:52:54;75636.06;;;-146.65;78.68
57094;BME280;42970;50.996;3.706;2022-08-03T05:55:21;75630.03;;;-146.65;78.02
57094;BME280;42970;50.996;3.706;2022-08-03T05:57:47;75617.94;;;-146.65;77.66
57094;BME280;42970;50.996;3.706;2022-08-03T06:00:13;75601.78;;;-146.65;77.33
57094;BME280;42970;50.996;3.706;2022-08-03T06:02:38;75597.75;;;-146.65;77.02
57094;BME280;42970;50.996;3.706;2022-08-03T06:05:04;75593.72;;;-146.65;76.87
57094;BME280;42970;50.996;3.706;2022-08-03T06:07:30;75589.69;;;-146.65;76.46
57094;BME280;42970;50.996;3.706;2022-08-03T06:09:56;75585.66;;;-146.65;75.98
57094;BME280;42970;50.996;3.706;2022-08-03T06:12:21;75573.53;;;-146.65;75.86
57094;BME280;42970;50.996;3.706;2022-08-03T06:14:46;75565.47;;;-146.65;75.80
57094;BME280;42970;50.996;3.706;2022-08-03T06:17:12;75559.44;;;-146.65;75.43
57094;BME280;42970;50.996;3.706;2022-08-03T06:19:38;75529.16;;;-146.65;74.64
57094;BME280;42970;50.996;3.706;2022-08-03T06:22:03;75521.09;;;-146.65;73.77
57094;BME280;42970;50.996;3.706;2022-08-03T06:24:29;75504.97;;;-146.65;73.69
57094;BME280;42970;50.996;3.706;2022-08-03T06:26:54;75504.97;;;-146.65;73.25
57094;BME280;42970;50.996;3.706;2022-08-03T06:29:20;75515.06;;;-146.65;73.05
57094;BME280;42970;50.996;3.706;2022-08-03T06:31:45;75496.91;;;-146.65;72.58
57094;BME280;42970;50.996;3.706;2022-08-03T06:34:10;75484.78;;;-146.65;72.59
57094;BME280;42970;50.996;3.706;2022-08-03T06:36:36;75460.59;;;-146.65;71.98
57094;BME280;42970;50.996;3.706;2022-08-03T06:39:02;75466.66;;;-146.65;71.49
57094;BME280;42970;50.996;3.706;2022-08-03T06:41:28;75456.56;;;-146.65;71.03
57094;BME280;42970;50.996;3.706;2022-08-03T06:43:54;75440.44;;;-146.65;70.93
57094;BME280;42970;50.996;3.706;2022-08-03T06:46:19;75412.19;;;-146.65;70.16
57094;BME280;42970;50.996;3.706;2022-08-03T06:48:45;75396.06;;;-146.65;69.26
57094;BME280;42970;50.996;3.706;2022-08-03T06:51:11;75400.09;;;-146.65;68.72
57094;BME280;42970;50.996;3.706;2022-08-03T06:53:36;75390.00;;;-146.65;69.09
57094;BME280;42970;50.996;3.706;2022-08-03T06:56:04;75379.91;;;-146.65;68.92
57094;BME280;42970;50.996;3.706;2022-08-03T06:58:29;75361.75;;;-146.65;67.71
57094;BME280;42970;50.996;3.706;2022-08-03T07:00:55;75353.69;;;-146.65;67.38
57094;BME280;42970;50.996;3.706;2022-08-03T07:03:20;75331.50;;;-146.65;67.34
57094;BME280;42970;50.996;3.706;2022-08-03T07:05:45;75333.53;;;-146.65;66.74
57094;BME280;42970;50.996;3.706;2022-08-03T07:08:12;75347.66;;;-146.65;66.98
57094;BME280;42970;50.996;3.706;2022-08-03T07:10:37;75339.56;;;-146.65;67.05
57094;BME280;42970;50.996;3.706;2022-08-03T07:13:03;75321.41;;;-146.65;67.17
57094;BME280;42970;50.996;3.706;2022-08-03T07:15:29;75327.47;;;-146.65;66.25
57094;BME280;42970;50.996;3.706;2022-08-03T07:17:55;75315.38;;;-146.65;65.87
57094;BME280;42970;50.996;3.706;2022-08-03T07:20:21;75291.16;;;-146.65;65.96
57094;BME280;42970;50.996;3.706;2022-08-03T07:22:46;75287.13;;;-146.65;64.99
57094;BME280;42970;50.996;3.706;2022-08-03T07:25:12;75291.16;;;-146.65;65.00
57094;BME280;42970;50.996;3.706;2022-08-03T07:27:42;75275.03;;;-146.65;64.26
57094;BME280;42970;50.996;3.706;2022-08-03T07:30:08;75271.00;;;-146.65;63.73
57094;BME280;42970;50.996;3.706;2022-08-03T07:32:33;75285.13;;;-146.65;64.86
57094;BME280;42970;50.996;3.706;2022-08-03T07:34:59;75248.81;;;-146.65;63.84
57094;BME280;42970;50.996;3.706;2022-08-03T07:37:25;75226.63;;;-146.65;62.87
57094;BME280;42970;50.996;3.706;2022-08-03T07:39:50;75236.72;;;-146.65;62.73
57094;BME280;42970;50.996;3.706;2022-08-03T07:42:15;75236.72;;;-146.65;62.40
57094;BME280;42970;50.996;3.706;2022-08-03T07:44:41;75200.41;;;-146.65;61.64
57094;BME280;42970;50.996;3.706;2022-08-03T07:47:06;75202.44;;;-146.65;61.37
57094;BME280;42970;50.996;3.706;2022-08-03T07:49:32;75206.47;;;-146.65;61.55
57094;BME280;42970;50.996;3.706;2022-08-03T07:51:57;75164.09;;;-146.65;60.86
57094;BME280;42970;50.996;3.706;2022-08-03T07:54:42;75156.03;;;-146.65;60.60
57094;BME280;42970;50.996;3.706;2022-08-03T07:57:08;75182.25;;;-146.65;60.59
57094;BME280;42970;50.996;3.706;2022-08-03T07:59:33;75170.16;;;-146.65;60.58
57094;BME280;42970;50.996;3.706;2022-08-03T08:01:59;75160.06;;;-146.65;60.63
57094;BME280;42970;50.996;3.706;2022-08-03T08:04:25;75150.00;;;-146.65;60.51
57094;BME280;42970;50.996;3.706;2022-08-03T08:06:50;75121.75;;;-146.65;60.31
57094;BME280;42970;50.996;3.706;2022-08-03T08:09:15;75131.84;;;-146.65;59.87
57094;BME280;42970;50.996;3.706;2022-08-03T08:11:41;75109.66;;;-146.65;59.70
57094;BME280;42970;50.996;3.706;2022-08-03T08:14:06;75071.34;;;-146.65;59.12
57094;BME280;42970;50.996;3.706;2022-08-03T08:16:32;75083.44;;;-146.65;59.12
57094;BME280;42970;50.996;3.706;2022-08-03T08:18:57;75061.25;;;-146.65;58.20
57094;BME280;42970;50.996;3.706;2022-08-03T08:21:23;75041.06;;;-146.65;56.56
57094;BME280;42970;50.996;3.706;2022-08-03T08:23:48;75057.22;;;-146.65;57.70
57094;BME280;42970;50.996;3.706;2022-08-03T08:26:14;75047.13;;;-146.65;57.55
57094;BME280;42970;50.996;3.706;2022-08-03T08:28:39;75041.06;;;-146.65;57.22
57094;BME280;42970;50.996;3.706;2022-08-03T08:31:05;75043.09;;;-146.65;56.85
57094;BME280;42970;50.996;3.706;2022-08-03T08:33:30;75041.06;;;-146.65;57.08
57094;BME280;42970;50.996;3.706;2022-08-03T08:35:56;75004.78;;;-146.65;56.27
57094;BME280;42970;50.996;3.706;2022-08-03T08:38:22;74978.56;;;-146.65;55.56
57094;BME280;42970;50.996;3.706;2022-08-03T08:40:48;74964.44;;;-146.65;55.26
57094;BME280;42970;50.996;3.706;2022-08-03T08:43:14;74936.22;;;-146.65;55.20
57094;BME280;42970;50.996;3.706;2022-08-03T08:45:40;74887.81;;;-146.65;54.61
57094;BME280;42970;50.996;3.706;2022-08-03T08:48:06;74875.72;;;-146.65;52.93
57094;BME280;42970;50.996;3.706;2022-08-03T08:50:32;74867.63;;;-146.65;52.10
57094;BME280;42970;50.996;3.706;2022-08-03T08:53:00;74851.50;;;-146.65;52.18
57094;BME280;42970;50.996;3.706;2022-08-03T08:55:28;74845.47;;;-146.65;51.77
57094;BME280;42970;50.996;3.706;2022-08-03T08:58:01;74809.16;;;-146.65;51.15
57094;BME280;42970;50.996;3.706;2022-08-03T09:00:29;74799.06;;;-146.65;51.09
57094;BME280;42970;50.996;3.706;2022-08-03T09:02:55;74823.28;;;-146.65;51.85
57094;BME280;42970;50.996;3.706;2022-08-03T09:05:21;74833.34;;;-146.65;50.80
57094;BME280;42970;50.996;3.706;2022-08-03T09:07:48;74764.78;;;-146.65;50.29
57094;BME280;42970;50.996;3.706;2022-08-03T09:10:16;74722.44;;;-146.65;49.36
57094;BME280;42970;50.996;3.706;2022-08-03T09:12:48;74720.41;;;-146.65;48.97
57094;BME280;42970;50.996;3.706;2022-08-03T09:15:24;74702.28;;;-146.65;48.51
57094;BME280;42970;50.996;3.706;2022-08-03T09:17:52;74688.16;;;-146.65;47.88
57094;BME280;42970;50.996;3.706;2022-08-03T09:20:20;74694.22;;;-146.65;48.03
57094;BME280;42970;50.996;3.706;2022-08-03T09:22:56;74674.03;;;-146.65;47.45
57094;BME280;42970;50.996;3.706;2022-08-03T09:25:47;74637.75;;;-146.65;47.63
57094;BME280;42970;50.996;3.706;2022-08-03T09:28:14;74641.78;;;-146.65;47.23
57094;BME280;42970;50.996;3.706;2022-08-03T09:30:42;74599.44;;;-146.65;45.89
57094;BME280;42970;50.996;3.706;2022-08-03T09:33:11;74547.00;;;-146.65;44.38
57094;BME280;42970;50.996;3.706;2022-08-03T09:35:45;74619.59;;;-146.65;45.21
57094;BME280;42970;50.996;3.706;2022-08-03T09:38:15;74621.59;;;-146.65;45.56
57094;BME280;42970;50.996;3.706;2022-08-03T09:40:42;74585.31;;;-146.65;44.64
57094;BME280;42970;50.996;3.706;2022-08-03T09:43:08;74555.06;;;-146.65;43.94
57094;BME280;42970;50.996;3.706;2022-08-03T09:45:35;74553.03;;;-146.65;43.92
57094;BME280;42970;50.996;3.706;2022-08-03T09:48:20;74488.50;;;-146.65;43.13
57094;BME280;42970;50.996;3.706;2022-08-03T09:50:51;74478.44;;;-146.65;42.83
57094;BME280;42970;50.996;3.706;2022-08-03T09:53:17;74530.88;;;-146.65;42.84
57094;BME280;42970;50.996;3.706;2022-08-03T09:56:09;74508.69;;;-146.65;43.39
57094;BME280;42970;50.996;3.706;2022-08-03T09:58:44;74480.44;;;-146.65;43.19
57094;BME280;42970;50.996;3.706;2022-08-03T10:01:10;74452.22;;;-146.65;42.53
57094;BME280;42970;50.996;3.706;2022-08-03T10:03:39;74419.97;;;-146.65;41.75
57094;BME280;42970;50.996;3.706;2022-08-03T10:06:30;74387.69;;;-146.65;40.92
57094;BME280;42970;50.996;3.706;2022-08-03T10:09:12;74405.84;;;-146.65;41.08
57094;BME280;42970;50.996;3.706;2022-08-03T10:11:39;74377.59;;;-146.65;40.69
57094;BME280;42970;50.996;3.706;2022-08-03T10:14:07;74395.75;;;-146.65;41.14
57094;BME280;42970;50.996;3.706;2022-08-03T10:16:38;74367.53;;;-146.65;40.86
57094;BME280;42970;50.996;3.706;2022-08-03T10:19:05;74371.56;;;-146.65;40.96
57094;BME280;42970;50.996;3.706;2022-08-03T10:21:33;74371.56;;;-146.65;40.57
57094;BME280;42970;50.996;3.706;2022-08-03T10:24:01;74359.47;;;-146.65;40.86
57094;BME280;42970;50.996;3.706;2022-08-03T10:26:30;74359.47;;;-146.65;40.77
57094;BME280;42970;50.996;3.706;2022-08-03T10:28:59;74300.97;;;-146.65;40.15
57094;BME280;42970;50.996;3.706;2022-08-03T10:31:33;74252.59;;;-146.65;39.62
57094;BME280;42970;50.996;3.706;2022-08-03T10:34:00;74266.69;;;-146.65;39.72
57094;BME280;42970;50.996;3.706;2022-08-03T10:36:29;74244.53;;;-146.65;39.32
57094;BME280;42970;50.996;3.706;2022-08-03T10:38:56;74270.75;;;-146.65;39.96
57094;BME280;42970;50.996;3.706;2022-08-03T10:41:31;74192.09;;;-146.65;38.95
57094;BME280;42970;50.996;3.706;2022-08-03T10:44:05;74157.81;;;-146.65;38.68
57094;BME280;42970;50.996;3.706;2022-08-03T10:46:32;74105.41;;;-146.65;38.21
57094;BME280;42970;50.996;3.706;2022-08-03T10:48:58;74055.00;;;-146.65;38.02
57094;BME280;42970;50.996;3.706;2022-08-03T10:51:24;74109.44;;;-146.65;37.34
57094;BME280;42970;50.996;3.706;2022-08-03T10:53:54;74044.91;;;-146.65;37.26
57094;BME280;42970;50.996;3.706;2022-08-03T10:59:17;74000.53;;;-146.65;36.11
57094;BME280;42970;50.996;3.706;2022-08-03T11:01:54;73893.69;;;-146.65;35.78
57094;BME280;42970;50.996;3.706;2022-08-03T11:04:20;73960.22;;;-146.65;35.45
57094;BME280;42970;50.996;3.706;2022-08-03T11:06:46;73982.41;;;-146.65;35.79
57094;BME280;42970;50.996;3.706;2022-08-03T11:09:14;73940.06;;;-146.65;35.31
57094;BME280;42970;50.996;3.706;2022-08-03T11:11:41;73978.38;;;-146.65;35.47
57094;BME280;42970;50.996;3.706;2022-08-03T11:14:14;73859.41;;;-146.65;34.44
57094;BME280;42970;50.996;3.706;2022-08-03T11:16:46;73843.28;;;-146.65;33.63
57094;BME280;42970;50.996;3.706;2022-08-03T11:19:15;73823.13;;;-146.65;34.43
57094;BME280;42970;50.996;3.706;2022-08-03T11:42:58;73762.63;;;-146.65;32.63
57094;BME280;42970;50.996;3.706;2022-08-03T11:45:24;73752.56;;;-146.65;32.68
57094;BME280;42970;50.996;3.706;2022-08-03T11:47:50;73706.19;;;-146.65;32.77
57094;BME280;42970;50.996;3.706;2022-08-03T11:50:18;73633.59;;;-146.65;32.16
57094;BME280;42970;50.996;3.706;2022-08-03T11:52:44;73661.81;;;-146.65;31.82
57094;BME280;42970;50.996;3.706;2022-08-03T11:55:10;73766.66;;;-146.65;32.75
57094;BME280;42970;50.996;3.706;2022-08-03T11:57:36;73667.88;;;-146.65;31.98
57094;BME280;42970;50.996;3.706;2022-08-03T12:00:03;73718.28;;;-146.65;31.93
57094;BME280;42970;50.996;3.706;2022-08-03T12:02:56;73782.78;;;-146.65;32.75
57094;BME280;42970;50.996;3.706;2022-08-03T12:05:43;73754.56;;;-146.65;32.83
57094;BME280;42970;50.996;3.706;2022-08-03T12:08:08;73694.09;;;-146.65;32.02
57094;BME280;42970;50.996;3.706;2022-08-03T12:10:34;73730.38;;;-146.65;32.49
57094;BME280;42970;50.996;3.706;2022-08-03T12:13:01;73548.94;;;-146.65;31.46
57094;BME280;42970;50.996;3.706;2022-08-03T12:15:30;73407.81;;;-146.65;30.96
57094;BME280;42970;50.996;3.706;2022-08-03T12:17:58;73488.44;;;-146.65;30.35
57094;BME280;42970;50.996;3.706;2022-08-03T12:20:26;73559.00;;;-146.65;31.09
57094;BME280;42970;50.996;3.706;2022-08-03T12:22:52;73667.88;;;-146.65;31.31
57094;BME280;42970;50.996;3.706;2022-08-03T12:27:46;73917.88;;;-146.65;33.72
57094;BME280;42970;50.996;3.706;2022-08-03T12:30:11;74055.00;;;-146.65;35.36
57094;BME280;42970;50.996;3.706;2022-08-03T12:32:37;73861.44;;;-146.65;33.58
57094;BME280;42970;50.996;3.706;2022-08-03T12:35:03;73827.16;;;-146.65;33.58
57094;BME280;42970;50.996;3.706;2022-08-03T12:37:30;74020.72;;;-146.65;34.97
57094;BME280;42970;50.996;3.706;2022-08-03T12:39:58;73972.31;;;-146.65;35.21
57094;BME280;42970;50.996;3.706;2022-08-03T12:42:32;74010.63;;;-146.65;35.32
57094;BME280;42970;50.996;3.706;2022-08-03T12:44:58;73966.28;;;-146.65;34.74
57094;BME280;42970;50.996;3.706;2022-08-03T12:47:23;73956.19;;;-146.65;34.51
57094;BME280;42970;50.996;3.706;2022-08-03T12:49:50;73929.97;;;-146.65;34.23
57094;BME280;42970;50.996;3.706;2022-08-03T12:52:17;73756.59;;;-146.65;32.91
57094;BME280;42970;50.996;3.706;2022-08-03T12:57:21;73504.56;;;-146.65;30.69
57094;BME280;42970;50.996;3.706;2022-08-03T12:59:46;73641.66;;;-146.65;31.56
57094;BME280;42970;50.996;3.706;2022-08-03T13:02:22;73682.00;;;-146.65;32.12
57094;BME280;42970;50.996;3.706;2022-08-03T13:04:48;73627.56;;;-146.65;31.23
57094;BME280;42970;50.996;3.706;2022-08-03T13:07:14;73841.28;;;-146.65;32.95
57094;BME280;42970;50.996;3.706;2022-08-03T13:09:48;73932.00;;;-146.65;33.94
57094;BME280;42970;50.996;3.706;2022-08-03T13:12:15;74000.53;;;-146.65;35.06
57094;BME280;42970;50.996;3.706;2022-08-03T13:14:42;73770.69;;;-146.65;32.81
57094;BME280;42970;50.996;3.706;2022-08-03T13:17:08;73601.34;;;-146.65;31.29
57094;BME280;42970;50.996;3.706;2022-08-03T13:19:34;73516.69;;;-146.65;31.21
57094;BME280;42970;50.996;3.706;2022-08-03T13:22:09;73827.16;;;-146.65;33.37